< < Back
Terminal Aerodrome Forecast


Current Version              Previous Versions:   1  2  3  4  5  6  7  8  9  

Terminal Aerodrome Forecast

431
FTUS42 KJAX 270736 AAB
TAFSSI
TAF AMD
KSSI 270736Z 2708/2806 23010KT P6SM BKN015
     FM271500 23012KT P6SM VCSH BKN020
     FM271700 25014G22KT 5SM -SHRA VCTS BKN030CB
     FM272100 28012G20KT P6SM VCSH SCT025 OVC040
     FM280000 28009KT P6SM SCT050
     FM280400 30011KT P6SM SKC=



Latest METAR

871
SAUS70 KWBC 271500 RRP
MTRSSI
METAR KSSI 271453Z AUTO 24010KT 10SM BKN019 22/17 A2978 RMK AO2 SLP085
T02170172 58006


USA.gov is the U.S. government's official web portal to all federal, state and local government web resources and services.